Time;durP1;ratioP1;P1;durP2;ratioP2;P2;SDS_P1;SDS_P2;PMS_P1;PMS_P2;Temp;Humidity;BMP_temperature;BMP_pressure;BME280_temperature;BME280_humidity;BME280_pressure;Samples;Min_cycle;Max_cycle;Signal;HPM_P1;HPM_P2
2021/01/06 00:00:44;;;;;;;48.65;31.30;;;;;;;-0.30;84.05;100322.56;1759247;81;21094;-74
2021/01/06 00:03:14;;;;;;;47.13;30.43;;;;;;;-0.30;84.05;100326.45;1759503;81;21374;-74
2021/01/06 00:05:42;;;;;;;52.10;31.85;;;;;;;-0.30;84.03;100321.27;1729673;83;21140;-74
2021/01/06 00:08:10;;;;;;;43.87;28.25;;;;;;;-0.28;84.05;100322.99;1754043;81;21193;-74
2021/01/06 00:10:37;;;;;;;49.45;32.20;;;;;;;-0.27;84.06;100324.23;1788458;80;21950;-74
2021/01/06 00:13:05;;;;;;;43.68;27.30;;;;;;;-0.27;84.03;100320.79;1790290;80;21082;-74
2021/01/06 00:15:35;;;;;;;48.95;31.20;;;;;;;-0.27;84.04;100314.30;1787638;80;21066;-74
2021/01/06 00:18:04;;;;;;;47.00;29.23;;;;;;;-0.28;84.06;100312.16;1788542;80;21075;-74
2021/01/06 00:20:32;;;;;;;45.73;29.32;;;;;;;-0.26;84.06;100319.43;1788854;78;21560;-73
2021/01/06 00:22:59;;;;;;;43.30;27.65;;;;;;;-0.26;84.06;100322.03;1768335;80;22057;-74
2021/01/06 00:25:33;;;;;;;48.68;30.17;;;;;;;-0.24;84.05;100319.38;1790004;79;21154;-74
2021/01/06 00:28:01;;;;;;;43.98;27.77;;;;;;;-0.24;84.04;100310.29;1775165;80;21138;-74
2021/01/06 00:30:34;;;;;;;41.18;26.57;;;;;;;-0.25;84.03;100305.55;1768352;81;21146;-74
2021/01/06 00:33:05;;;;;;;52.38;31.40;;;;;;;-0.24;84.04;100303.34;1761437;80;21155;-74
2021/01/06 00:35:32;;;;;;;47.27;29.80;;;;;;;-0.24;84.03;100303.34;1750315;81;22105;-74
2021/01/06 00:38:00;;;;;;;55.40;34.58;;;;;;;-0.23;84.02;100305.03;1751778;81;21156;-74
2021/01/06 00:40:32;;;;;;;46.02;29.37;;;;;;;-0.24;84.02;100296.86;1757467;81;21165;-74
2021/01/06 00:43:07;;;;;;;49.25;29.77;;;;;;;-0.21;83.99;100304.52;1761910;80;21100;-74
2021/01/06 00:45:34;;;;;;;46.75;29.98;;;;;;;-0.21;84.01;100299.33;1762623;81;21481;-73
2021/01/06 00:48:03;;;;;;;42.90;28.57;;;;;;;-0.21;84.00;100311.02;1789872;80;23122;-74
2021/01/06 00:50:31;;;;;;;46.30;29.20;;;;;;;-0.21;84.01;100303.67;1771925;79;21121;-74
2021/01/06 00:53:00;;;;;;;44.98;28.32;;;;;;;-0.22;84.00;100302.83;1773042;80;21137;-74
2021/01/06 00:55:28;;;;;;;53.90;33.42;;;;;;;-0.21;84.01;100286.35;1764649;80;21453;-74
2021/01/06 00:57:56;;;;;;;54.05;33.30;;;;;;;-0.21;84.01;100295.44;1727437;81;21067;-74
2021/01/06 01:00:28;;;;;;;48.50;30.80;;;;;;;-0.20;84.01;100289.80;1756198;81;22482;-74
2021/01/06 01:02:56;;;;;;;44.35;28.17;;;;;;;-0.18;84.03;100297.09;1757465;80;21153;-74
2021/01/06 01:05:26;;;;;;;43.10;27.13;;;;;;;-0.17;84.01;100294.44;1788475;80;21046;-74
2021/01/06 01:07:55;;;;;;;39.88;25.10;;;;;;;-0.16;84.03;100290.94;1758952;80;21074;-74
2021/01/06 01:10:52;;;;;;;42.30;27.25;;;;;;;-0.14;84.03;100291.72;1789906;80;21071;-74
2021/01/06 01:13:23;;;;;;;44.08;26.45;;;;;;;-0.13;84.01;100293.87;1682017;84;22941;-75
2021/01/06 01:15:57;;;;;;;41.85;25.72;;;;;;;-0.15;84.00;100286.14;1678160;84;21145;-74
2021/01/06 01:18:27;;;;;;;51.13;29.18;;;;;;;-0.16;83.99;100287.05;1766812;78;21045;-74
2021/01/06 01:20:57;;;;;;;41.77;24.50;;;;;;;-0.17;83.99;100286.66;1824791;78;21177;-74
2021/01/06 01:23:27;;;;;;;49.45;30.12;;;;;;;-0.16;83.99;100292.69;1822512;78;21061;-74
2021/01/06 01:25:57;;;;;;;51.10;30.65;;;;;;;-0.16;83.98;100300.48;1836067;77;22934;-75
2021/01/06 01:28:25;;;;;;;46.83;28.20;;;;;;;-0.17;84.00;100298.79;1823775;77;21142;-74
2021/01/06 01:30:55;;;;;;;43.30;26.60;;;;;;;-0.18;83.98;100297.94;1824301;78;21150;-74
2021/01/06 01:33:25;;;;;;;48.02;27.85;;;;;;;-0.19;83.97;100307.06;1814200;77;21055;-75
2021/01/06 01:35:55;;;;;;;42.80;27.32;;;;;;;-0.21;83.97;100305.82;1831600;77;21483;-74
2021/01/06 01:38:28;;;;;;;48.33;29.25;;;;;;;-0.21;83.97;100304.52;1826737;77;21883;-75
2021/01/06 01:41:06;;;;;;;41.95;25.92;;;;;;;-0.22;83.98;100300.23;1827435;77;21066;-74
2021/01/06 01:43:36;;;;;;;55.90;31.00;;;;;;;-0.21;83.98;100295.44;1822302;78;21057;-74
2021/01/06 01:46:09;;;;;;;48.33;28.52;;;;;;;-0.21;83.98;100301.92;1823685;78;21483;-73
2021/01/06 01:48:47;;;;;;;52.17;30.80;;;;;;;-0.20;83.97;100300.17;1812466;78;21101;-74
2021/01/06 01:51:41;;;;;;;38.95;23.40;;;;;;;-0.16;84.00;100290.94;1862557;76;29474;-74
2021/01/06 01:54:13;;;;;;;40.08;23.60;;;;;;;-0.18;84.01;100286.72;1835867;78;21096;-74
2021/01/06 01:57:06;;;;;;;46.33;26.95;;;;;;;-0.16;83.98;100288.80;1838432;78;22986;-74
2021/01/06 01:59:54;;;;;;;42.80;25.88;;;;;;;-0.13;84.00;100291.27;1783962;79;21166;-75
2021/01/06 02:03:01;;;;;;;51.65;30.37;;;;;;;-0.13;83.98;100279.59;1802564;79;21451;-74
2021/01/06 02:05:38;;;;;;;49.83;28.80;;;;;;;-0.14;83.97;100281.80;1756486;79;21538;-75
2021/01/06 02:08:20;;;;;;;43.95;27.05;;;;;;;-0.15;83.95;100284.00;1792222;78;21147;-74
2021/01/06 02:11:05;;;;;;;44.05;25.85;;;;;;;-0.16;83.98;100277.12;1776783;80;22973;-75
2021/01/06 02:13:37;;;;;;;54.23;31.20;;;;;;;-0.14;83.99;100281.34;1764376;79;21064;-74
2021/01/06 02:16:34;;;;;;;50.45;26.60;;;;;;;-0.16;83.99;100276.66;1776582;80;21174;-74
2021/01/06 02:19:04;;;;;;;46.40;26.57;;;;;;;-0.16;84.01;100274.06;1799910;79;21063;-74
2021/01/06 02:21:32;;;;;;;52.03;30.30;;;;;;;-0.16;84.01;100268.03;1807853;79;21075;-74
2021/01/06 02:23:59;;;;;;;50.58;25.82;;;;;;;-0.13;84.03;100273.09;1778654;79;22134;-74
2021/01/06 02:26:28;;;;;;;50.85;28.87;;;;;;;-0.12;84.07;100257.46;1720000;80;21187;-74
2021/01/06 02:28:56;;;;;;;54.73;30.35;;;;;;;-0.10;84.04;100260.84;1779534;79;21155;-74
2021/01/06 02:31:24;;;;;;;49.98;27.02;;;;;;;-0.08;84.05;100269.44;1776648;80;21083;-75
2021/01/06 02:33:52;;;;;;;49.60;28.35;;;;;;;-0.10;84.04;100267.33;1730052;81;21061;-76
2021/01/06 02:36:20;;;;;;;52.35;28.42;;;;;;;-0.12;84.03;100261.36;1705919;82;22079;-74
2021/01/06 02:38:47;;;;;;;52.17;30.55;;;;;;;-0.12;84.04;100261.81;1710875;82;21595;-74
2021/01/06 02:41:16;;;;;;;53.58;29.55;;;;;;;-0.11;84.07;100260.91;1755863;80;21132;-78
2021/01/06 02:43:44;;;;;;;51.25;28.42;;;;;;;-0.10;84.07;100258.24;1727630;81;21084;-75
2021/01/06 02:46:11;;;;;;;48.90;26.70;;;;;;;-0.06;84.11;100251.20;1727712;81;21056;-76
2021/01/06 02:48:39;;;;;;;53.23;26.87;;;;;;;-0.05;84.07;100251.14;1704778;81;22078;-75
2021/01/06 02:51:14;;;;;;;58.75;30.35;;;;;;;-0.05;84.07;100260.69;1744601;81;21132;-75
2021/01/06 02:53:59;;;;;;;55.40;29.45;;;;;;;-0.06;84.08;100271.52;1735556;81;21092;-73
2021/01/06 02:56:26;;;;;;;45.05;24.20;;;;;;;-0.05;84.08;100271.91;1726628;81;21116;-75
2021/01/06 02:58:54;;;;;;;52.27;27.60;;;;;;;-0.07;84.10;100273.73;1701100;81;21068;-74
2021/01/06 03:01:24;;;;;;;63.58;30.15;;;;;;;-0.06;84.11;100276.72;1703180;81;22490;-74
2021/01/06 03:03:51;;;;;;;56.00;27.80;;;;;;;-0.08;84.15;100277.69;1755039;81;21159;-75
2021/01/06 03:06:52;;;;;;;56.70;25.27;;;;;;;-0.10;84.18;100277.71;1756033;81;21068;-75
2021/01/06 03:09:39;;;;;;;59.83;26.90;;;;;;;-0.12;84.24;100282.13;1725886;81;21056;-75
2021/01/06 03:12:20;;;;;;;53.78;25.48;;;;;;;-0.13;84.30;100284.33;1728398;81;22322;-75
2021/01/06 03:14:48;;;;;;;60.92;31.48;;;;;;;-0.14;84.36;100271.41;1745307;81;22974;-74
2021/01/06 03:17:17;;;;;;;57.95;27.87;;;;;;;-0.14;84.39;100280.49;1726334;81;21152;-75
2021/01/06 03:19:52;;;;;;;55.28;28.25;;;;;;;-0.14;84.42;100276.15;1756006;81;21155;-74
2021/01/06 03:22:23;;;;;;;58.00;26.85;;;;;;;-0.13;84.46;100284.33;1752878;81;21096;-74
2021/01/06 03:24:59;;;;;;;64.45;29.90;;;;;;;-0.11;84.52;100291.60;1702758;81;21056;-73
2021/01/06 03:27:26;;;;;;;69.90;32.53;;;;;;;-0.11;84.57;100277.77;1729943;81;22143;-74
2021/01/06 03:29:54;;;;;;;50.98;24.80;;;;;;;-0.11;84.61;100296.80;1708954;83;21093;-74
2021/01/06 03:32:50;;;;;;;51.95;25.23;;;;;;;-0.12;84.63;100302.89;1740428;81;21096;-76
2021/01/06 03:35:32;;;;;;;71.45;34.23;;;;;;;-0.11;84.70;100294.65;1724470;81;21140;-75
2021/01/06 03:38:17;;;;;;;49.98;26.05;;;;;;;-0.11;84.71;100298.09;1700387;83;21056;-75
2021/01/06 03:40:48;;;;;;;65.05;29.32;;;;;;;-0.10;84.76;100295.04;1726016;82;21593;-75
2021/01/06 03:43:17;;;;;;;55.00;23.90;;;;;;;-0.11;84.78;100294.20;1742485;80;21152;-75
2021/01/06 03:45:48;;;;;;;73.25;32.83;;;;;;;-0.11;84.82;100293.35;1754069;81;21407;-75
2021/01/06 03:48:41;;;;;;;60.43;28.35;;;;;;;-0.12;84.83;100291.66;1728804;81;21147;-75
2021/01/06 03:51:35;;;;;;;68.00;31.00;;;;;;;-0.12;84.87;100291.66;1684049;81;21139;-75
2021/01/06 03:54:22;;;;;;;;;;;;;;;-0.13;84.91;100286.92;1761017;81;21895;-75
2021/01/06 03:56:49;;;;;;;65.72;32.85;;;;;;;-0.12;84.92;100284.72;1758651;81;20398;-75
2021/01/06 03:59:28;;;;;;;70.95;31.17;;;;;;;-0.13;84.96;100291.27;1758606;81;21563;-75
2021/01/06 04:02:18;;;;;;;59.65;27.02;;;;;;;-0.11;84.98;100295.50;1755265;81;21467;-75
2021/01/06 04:05:15;;;;;;;61.90;26.12;;;;;;;-0.11;85.02;100292.05;1759249;81;21183;-75
2021/01/06 04:07:48;;;;;;;61.28;29.25;;;;;;;-0.11;85.06;100283.81;1729049;83;21865;-74
2021/01/06 04:10:23;;;;;;;60.33;28.40;;;;;;;-0.14;85.09;100290.42;1756519;80;21163;-74
2021/01/06 04:12:51;;;;;;;62.15;29.67;;;;;;;-0.13;85.21;100289.52;1743400;81;21513;-74
2021/01/06 04:15:19;;;;;;;61.10;26.57;;;;;;;-0.15;85.25;100292.62;1729315;81;22475;-75
2021/01/06 04:17:49;;;;;;;63.42;29.10;;;;;;;-0.17;85.29;100294.44;1729074;81;21152;-74
2021/01/06 04:20:31;;;;;;;68.02;31.00;;;;;;;-0.18;85.36;100292.75;1750460;81;22962;-74
2021/01/06 04:23:09;;;;;;;51.08;25.02;;;;;;;-0.18;85.40;100298.39;1755951;81;21194;-74
2021/01/06 04:25:42;;;;;;;60.52;25.95;;;;;;;-0.17;85.48;100298.79;1758925;81;21116;-74
2021/01/06 04:28:18;;;;;;;;;;;;;;;-0.17;85.50;100306.58;1761881;81;21073;-75
2021/01/06 04:30:55;;;;;;;61.48;27.58;;;;;;;-0.17;85.51;100310.02;1731614;81;20277;-75
2021/01/06 04:33:29;;;;;;;59.55;25.75;;;;;;;-0.16;85.57;100302.63;1742091;81;22039;-75
2021/01/06 04:36:00;;;;;;;80.60;34.90;;;;;;;-0.14;85.59;100313.78;1739094;81;21132;-74
2021/01/06 04:38:31;;;;;;;82.82;33.35;;;;;;;-0.12;85.59;100305.94;1758997;81;21551;-74
2021/01/06 04:41:20;;;;;;;72.62;31.35;;;;;;;-0.13;85.59;100305.09;1752893;81;21167;-74
2021/01/06 04:44:28;;;;;;;63.52;27.60;;;;;;;-0.12;85.63;100309.83;1731033;81;21188;-75
2021/01/06 04:47:37;;;;;;;78.60;30.43;;;;;;;-0.11;85.72;100307.17;1728982;82;21900;-75
2021/01/06 04:50:30;;;;;;;59.65;23.70;;;;;;;-0.13;85.74;100310.29;1729080;81;21195;-74
2021/01/06 04:53:30;;;;;;;66.87;29.55;;;;;;;-0.14;85.77;100306.00;1732481;81;21131;-74
2021/01/06 04:56:06;;;;;;;68.45;28.90;;;;;;;-0.13;85.83;100308.98;1731435;81;21565;-75
2021/01/06 04:58:56;;;;;;;73.95;32.90;;;;;;;-0.15;85.87;100312.09;1729869;81;21076;-76
2021/01/06 05:02:12;;;;;;;55.75;25.65;;;;;;;-0.17;85.90;100319.10;1745697;81;22088;-74
2021/01/06 05:04:55;;;;;;;;;;;;;;;-0.18;85.98;100318.71;1746420;81;21147;-74
2021/01/06 05:07:55;;;;;;;58.40;25.70;;;;;;;-0.20;86.05;100309.26;1729557;83;20231;-75
2021/01/06 05:10:38;;;;;;;70.22;29.72;;;;;;;-0.22;86.11;100308.02;1721955;82;21514;-74
2021/01/06 05:13:20;;;;;;;56.35;24.85;;;;;;;-0.23;86.15;100314.13;1741236;81;21080;-74
2021/01/06 05:15:56;;;;;;;56.58;24.00;;;;;;;-0.22;86.18;100304.13;1713400;81;22093;-74
2021/01/06 05:18:25;;;;;;;55.48;25.25;;;;;;;-0.21;86.24;100316.20;1757056;81;21068;-74
2021/01/06 05:20:54;;;;;;;75.03;32.70;;;;;;;-0.20;86.28;100309.26;1757498;81;21424;-75
2021/01/06 05:23:24;;;;;;;65.78;29.37;;;;;;;-0.21;86.30;100320.09;1736128;81;21175;-75
2021/01/06 05:25:52;;;;;;;53.33;25.05;;;;;;;-0.21;86.36;100318.80;1737269;81;21074;-77
2021/01/06 05:28:22;;;;;;;68.67;33.33;;;;;;;-0.21;86.39;100316.66;1738908;81;21996;-75
2021/01/06 05:30:55;;;;;;;69.53;33.00;;;;;;;-0.23;86.44;100311.52;1729185;81;21137;-72
2021/01/06 05:33:35;;;;;;;64.32;28.85;;;;;;;-0.22;86.48;100308.48;1740056;81;21503;-69
2021/01/06 05:36:05;;;;;;;76.82;33.48;;;;;;;-0.22;86.51;100305.42;1747578;81;21070;-70
2021/01/06 05:38:33;;;;;;;72.47;33.40;;;;;;;-0.20;86.55;100306.21;1767541;81;21069;-71
2021/01/06 05:41:00;;;;;;;58.17;27.10;;;;;;;-0.18;86.57;100309.62;1736030;81;22025;-71
2021/01/06 05:43:38;;;;;;;52.35;24.80;;;;;;;-0.16;86.60;100306.52;1761464;81;21112;-71
2021/01/06 05:46:03;;;;;;;73.50;31.87;;;;;;;-0.15;86.64;100306.06;1737031;81;21516;-75
2021/01/06 05:48:50;;;;;;;70.57;32.15;;;;;;;-0.14;86.64;100312.95;1718421;81;21372;-75
2021/01/06 05:51:34;;;;;;;62.05;31.33;;;;;;;-0.13;86.66;100312.88;1718938;82;21587;-75
2021/01/06 05:54:08;;;;;;;69.03;32.83;;;;;;;-0.13;86.70;100314.19;1731409;81;22057;-75
2021/01/06 05:56:56;;;;;;;69.05;31.12;;;;;;;-0.12;86.70;100312.43;1732154;81;21160;-76
2021/01/06 05:59:49;;;;;;;66.12;30.32;;;;;;;-0.11;86.72;100316.72;1750706;80;21093;-78
2021/01/06 06:02:52;;;;;;;78.90;34.33;;;;;;;-0.13;86.77;100323.27;1737613;81;21187;-78
2021/01/06 06:05:40;;;;;;;71.97;32.20;;;;;;;-0.14;86.80;100325.47;1734009;81;21098;-71
2021/01/06 06:08:31;;;;;;;70.72;31.60;;;;;;;-0.16;86.85;100323.84;1743548;81;22070;-76
2021/01/06 06:11:30;;;;;;;58.90;26.97;;;;;;;-0.16;86.87;100319.50;1754046;81;21124;-77
2021/01/06 06:14:28;;;;;;;61.40;28.42;;;;;;;-0.14;86.92;100324.17;1741531;80;21188;-79
2021/01/06 06:17:24;;;;;;;70.72;32.78;;;;;;;-0.14;86.95;100325.92;1738998;81;21595;-80
2021/01/06 06:20:26;;;;;;;86.45;35.13;;;;;;;-0.16;86.98;100322.09;1756883;81;21040;-82
2021/01/06 06:23:12;;;;;;;51.00;22.15;;;;;;;-0.15;87.02;100332.02;1756813;81;22071;-82
2021/01/06 06:25:47;;;;;;;79.62;32.98;;;;;;;-0.12;87.06;100333.20;1734701;81;21108;-81
2021/01/06 06:28:22;;;;;;;73.83;35.52;;;;;;;-0.12;87.08;100330.15;1726656;83;21084;-85
2021/01/06 06:31:01;;;;;;;67.03;27.93;;;;;;;-0.08;87.10;100343.44;1727215;81;21159;-86
2021/01/06 06:33:31;;;;;;;67.58;29.87;;;;;;;-0.06;87.12;100338.18;1746070;81;21159;-77
2021/01/06 06:36:11;;;;;;;65.22;29.27;;;;;;;-0.06;87.13;100342.92;1754723;81;22804;-77
2021/01/06 06:38:43;;;;;;;69.55;30.17;;;;;;;-0.04;87.19;100341.56;1743557;80;21176;-87
2021/01/06 06:41:30;;;;;;;57.65;26.50;;;;;;;-0.04;87.20;100349.34;1781956;80;21057;-86
2021/01/06 06:44:29;;;;;;;63.00;29.07;;;;;;;-0.03;87.21;100344.09;1797219;80;21101;-87
2021/01/06 06:47:14;;;;;;;49.40;24.15;;;;;;;-0.03;87.25;100346.69;1797754;80;21101;-89
2021/01/06 06:50:16;;;;;;;91.80;36.63;;;;;;;0.00;87.29;100356.14;1797617;79;21891;-86
2021/01/06 06:53:02;;;;;;;73.97;30.05;;;;;;;-0.01;87.29;100351.83;1762290;79;21104;-85
2021/01/06 06:56:07;;;;;;;86.87;35.68;;;;;;;0.02;87.32;100353.03;1749503;82;21121;-85
2021/01/06 06:58:43;;;;;;;86.70;34.38;;;;;;;0.03;87.36;100357.77;1749970;80;21475;-86
2021/01/06 07:01:20;;;;;;;76.95;29.70;;;;;;;0.06;87.37;100352.00;1749869;80;21105;-87
2021/01/06 07:04:04;;;;;;;93.75;34.10;;;;;;;0.08;87.39;100350.19;1750051;82;22067;-86
2021/01/06 07:06:33;;;;;;;63.50;28.38;;;;;;;0.09;87.42;100349.73;1749790;80;21096;-85
2021/01/06 07:09:01;;;;;;;74.67;33.10;;;;;;;0.08;87.44;100342.41;1722408;82;21052;-86
2021/01/06 07:11:38;;;;;;;97.12;37.48;;;;;;;0.10;87.44;100339.33;1749994;81;21167;-86
2021/01/06 07:14:25;;;;;;;92.55;33.60;;;;;;;0.13;87.46;100343.55;1748071;82;21183;-87
2021/01/06 07:16:59;;;;;;;55.12;25.05;;;;;;;0.15;87.48;100351.67;1750119;82;22087;-86
2021/01/06 07:19:38;;;;;;;72.25;34.50;;;;;;;0.17;87.50;100351.16;1750188;81;21579;-86
2021/01/06 07:22:31;;;;;;;98.80;33.92;;;;;;;0.18;87.51;100347.65;1749931;81;21188;-86
2021/01/06 07:25:05;;;;;;;101.33;38.13;;;;;;;0.21;87.53;100352.75;1741919;82;21112;-86
2021/01/06 07:27:32;;;;;;;71.82;27.02;;;;;;;0.24;87.57;100351.33;1749422;82;21309;-86
2021/01/06 07:30:00;;;;;;;66.45;30.20;;;;;;;0.27;87.55;100343.41;1749806;82;22078;-87
2021/01/06 07:32:37;;;;;;;91.85;36.75;;;;;;;0.29;87.58;100345.98;1749840;80;21141;-86
2021/01/06 07:35:11;;;;;;;83.35;33.95;;;;;;;0.30;87.59;100341.63;1721441;82;21041;-84
2021/01/06 07:37:44;;;;;;;98.47;36.08;;;;;;;0.32;87.61;100351.50;1719430;83;21536;-86
2021/01/06 07:40:23;;;;;;;102.92;35.58;;;;;;;0.34;87.62;100350.53;1720247;82;21037;-86
2021/01/06 07:43:16;;;;;;;121.15;37.23;;;;;;;0.37;87.62;100345.20;1728323;80;21907;-86
2021/01/06 07:46:13;;;;;;;83.82;30.70;;;;;;;0.40;87.62;100354.66;1749863;80;21476;-85
2021/01/06 07:48:55;;;;;;;96.65;38.45;;;;;;;0.42;87.66;100351.55;1749938;81;21045;-83
2021/01/06 07:51:43;;;;;;;74.60;32.17;;;;;;;0.43;87.66;100360.58;1754334;80;21047;-86
2021/01/06 07:54:16;;;;;;;112.70;39.10;;;;;;;0.46;87.67;100359.16;1704848;82;21507;-86
2021/01/06 07:57:08;;;;;;;89.05;33.88;;;;;;;0.49;87.69;100368.61;1728276;82;22080;-86
2021/01/06 07:59:54;;;;;;;100.87;36.68;;;;;;;0.50;87.69;100367.25;1742812;82;21181;-86
2021/01/06 08:02:37;;;;;;;101.25;35.83;;;;;;;0.53;87.73;100367.12;1738545;82;21081;-86
2021/01/06 08:05:30;;;;;;;;;;;;;;;0.55;87.72;100374.40;1741359;82;21157;-86
2021/01/06 08:08:14;;;;;;;63.63;26.77;;;;;;;0.59;87.75;100373.84;1738543;82;20310;-86
2021/01/06 08:10:45;;;;;;;108.37;35.88;;;;;;;0.60;87.74;100374.69;1738785;81;22054;-87
2021/01/06 08:13:28;;;;;;;96.08;36.90;;;;;;;0.60;87.77;100379.89;1738869;82;21025;-87
2021/01/06 08:16:32;;;;;;;104.05;36.45;;;;;;;0.61;87.75;100380.28;1739156;82;21129;-87
2021/01/06 08:19:20;;;;;;;96.80;35.80;;;;;;;0.64;87.77;100376.25;1707895;84;21046;-87
2021/01/06 08:22:25;;;;;;;99.58;36.55;;;;;;;0.65;87.76;100374.89;1738938;81;21105;-87
2021/01/06 08:25:11;;;;;;;94.03;34.00;;;;;;;0.67;87.75;100372.23;1720261;82;22069;-75
2021/01/06 08:27:38;;;;;;;93.03;37.88;;;;;;;0.69;87.79;100371.28;1735438;81;21115;-78
2021/01/06 08:30:28;;;;;;;89.87;38.35;;;;;;;0.74;87.80;100365.89;1738135;81;21161;-70
2021/01/06 08:33:11;;;;;;;104.32;39.38;;;;;;;0.78;87.80;100362.28;1756985;81;21190;-72
2021/01/06 08:35:45;;;;;;;115.03;46.10;;;;;;;0.80;87.81;100363.91;1722047;81;28066;-72
2021/01/06 08:38:33;;;;;;;116.67;42.58;;;;;;;0.84;87.84;100356.82;1744955;82;21892;-70
2021/01/06 08:41:20;;;;;;;107.30;42.65;;;;;;;0.90;87.84;100356.59;1736658;82;21543;-71
2021/01/06 08:43:48;;;;;;;103.62;39.67;;;;;;;0.95;87.82;100359.84;1729152;81;21176;-71
2021/01/06 08:46:23;;;;;;;92.25;39.33;;;;;;;1.01;87.86;100352.25;1729814;81;21172;-72
2021/01/06 08:48:50;;;;;;;90.50;37.85;;;;;;;1.03;87.86;100356.94;1767485;81;21053;-72
2021/01/06 08:51:32;;;;;;;88.30;38.38;;;;;;;1.06;87.86;100356.38;1746030;80;21892;-72
2021/01/06 08:54:13;;;;;;;113.90;39.42;;;;;;;1.10;87.88;100355.78;1728247;82;21357;-72
2021/01/06 08:56:48;;;;;;;107.97;37.73;;;;;;;1.19;87.89;100354.11;1872780;75;29495;-72
2021/01/06 08:59:26;;;;;;;99.13;39.88;;;;;;;1.19;87.89;100357.16;1807600;79;21079;-71
2021/01/06 09:01:58;;;;;;;94.75;35.85;;;;;;;1.23;87.87;100359.56;1814309;77;22966;-75
2021/01/06 09:04:43;;;;;;;89.50;38.08;;;;;;;1.27;87.88;100359.84;1812761;78;21162;-72
2021/01/06 09:07:21;;;;;;;101.18;38.17;;;;;;;1.31;87.86;100361.86;1807355;78;21186;-72
2021/01/06 09:10:09;;;;;;;93.97;37.83;;;;;;;1.34;87.86;100351.31;1804281;79;21624;-71
2021/01/06 09:13:10;;;;;;;100.35;41.02;;;;;;;1.36;87.85;100355.56;1800377;79;21178;-74
2021/01/06 09:15:54;;;;;;;88.47;37.55;;;;;;;1.38;87.83;100356.80;1772476;80;22012;-72
2021/01/06 09:18:40;;;;;;;88.95;39.08;;;;;;;1.38;87.79;100360.70;1775550;80;21198;-74
2021/01/06 09:21:21;;;;;;;90.53;37.23;;;;;;;1.38;87.78;100359.40;1801063;78;21167;-73
2021/01/06 09:23:54;;;;;;;89.95;39.08;;;;;;;1.37;87.76;100361.16;1823675;77;21156;-74
2021/01/06 09:26:25;;;;;;;88.80;37.30;;;;;;;1.39;87.75;100359.78;1814487;78;21573;-74
2021/01/06 09:29:04;;;;;;;87.17;37.42;;;;;;;1.42;87.75;100360.95;1807237;79;22149;-73
2021/01/06 09:31:38;;;;;;;98.50;38.98;;;;;;;1.42;87.74;100364.39;1807347;78;21135;-74
2021/01/06 09:34:05;;;;;;;82.87;36.23;;;;;;;1.44;87.69;100366.47;1821589;78;21088;-73
2021/01/06 09:36:33;;;;;;;79.67;35.80;;;;;;;1.47;87.71;100362.08;1794376;78;21966;-74
2021/01/06 09:39:01;;;;;;;79.70;35.40;;;;;;;1.48;87.68;100362.46;1823770;78;22204;-73
2021/01/06 09:41:31;;;;;;;84.97;38.15;;;;;;;1.46;87.67;100367.73;1822784;78;22874;-73
2021/01/06 09:44:06;;;;;;;79.70;34.73;;;;;;;1.47;87.66;100364.67;1807805;78;21115;-74
2021/01/06 09:46:39;;;;;;;81.75;36.15;;;;;;;1.48;87.66;100363.77;1792423;79;21176;-75
2021/01/06 09:49:29;;;;;;;81.42;34.53;;;;;;;1.48;87.65;100364.61;1789429;78;29282;-74
2021/01/06 09:52:01;;;;;;;95.77;39.75;;;;;;;1.50;87.65;100357.58;1756171;78;21167;-73
2021/01/06 09:54:29;;;;;;;104.72;39.38;;;;;;;1.51;87.61;100351.91;1802784;79;22049;-75
2021/01/06 09:56:56;;;;;;;108.72;43.30;;;;;;;1.52;87.62;100350.54;1810869;79;21178;-75
2021/01/06 09:59:32;;;;;;;114.75;43.63;;;;;;;1.52;87.62;100357.05;1819274;78;21127;-73
2021/01/06 10:02:08;;;;;;;106.50;40.70;;;;;;;1.54;87.62;100350.47;1817322;78;21187;-72
2021/01/06 10:04:40;;;;;;;112.83;46.05;;;;;;;1.57;87.61;100343.85;1810580;79;21171;-73
2021/01/06 10:07:28;;;;;;;107.35;44.18;;;;;;;1.57;87.59;100351.20;1813439;78;22014;-73
2021/01/06 10:10:07;;;;;;;104.17;41.85;;;;;;;1.58;87.60;100347.69;1819428;78;21064;-73
2021/01/06 10:12:52;;;;;;;122.30;48.87;;;;;;;1.59;87.58;100353.73;1813549;79;21514;-74
2021/01/06 10:15:33;;;;;;;110.55;46.37;;;;;;;1.59;87.57;100358.48;1813917;78;21466;-72
2021/01/06 10:18:31;;;;;;;122.80;47.98;;;;;;;1.62;87.57;100356.20;1824012;78;21562;-72
2021/01/06 10:21:16;;;;;;;130.78;51.98;;;;;;;1.62;87.56;100360.11;1814819;78;22775;-73
2021/01/06 10:23:56;;;;;;;128.57;51.85;;;;;;;1.62;87.55;100364.01;1827055;78;21112;-72
2021/01/06 10:27:01;;;;;;;119.60;49.50;;;;;;;1.64;87.56;100353.95;1795224;78;21127;-70
2021/01/06 10:29:35;;;;;;;118.40;49.05;;;;;;;1.67;87.55;100359.47;1779767;80;21083;-72
2021/01/06 10:32:12;;;;;;;119.93;47.85;;;;;;;1.68;87.53;100357.25;1780036;79;21099;-71
2021/01/06 10:34:46;;;;;;;125.47;51.28;;;;;;;1.68;87.55;100363.30;1781503;79;21616;-72
2021/01/06 10:37:22;;;;;;;128.10;52.20;;;;;;;1.70;87.54;100373.64;1781456;80;21069;-73
2021/01/06 10:39:54;;;;;;;124.12;51.33;;;;;;;1.68;87.52;100364.60;1787219;79;21130;-73
2021/01/06 10:42:27;;;;;;;131.75;52.17;;;;;;;1.72;87.53;100368.75;1812062;78;21190;-73
2021/01/06 10:45:15;;;;;;;124.75;51.48;;;;;;;1.74;87.54;100362.20;1813137;79;21044;-72
2021/01/06 10:47:50;;;;;;;128.45;52.35;;;;;;;1.76;87.52;100373.39;1805486;78;22127;-72
2021/01/06 10:50:32;;;;;;;121.55;50.95;;;;;;;1.80;87.53;100367.58;1821612;78;21094;-73
2021/01/06 10:53:25;;;;;;;126.60;49.98;;;;;;;1.84;87.53;100362.66;1820109;78;21128;-72
2021/01/06 10:56:09;;;;;;;134.45;52.80;;;;;;;1.90;87.58;100362.36;1825842;78;21372;-73
2021/01/06 10:59:00;;;;;;;125.27;50.12;;;;;;;1.90;87.53;100361.91;1821336;78;21062;-73
2021/01/06 11:02:04;;;;;;;132.67;51.77;;;;;;;1.92;87.53;100354.86;1823985;78;21871;-72
2021/01/06 11:04:54;;;;;;;133.35;52.43;;;;;;;1.94;87.54;100350.45;1781657;78;21460;-74
2021/01/06 11:07:41;;;;;;;113.47;47.80;;;;;;;2.01;87.57;100347.09;1823537;78;21076;-73
2021/01/06 11:10:49;;;;;;;112.57;46.35;;;;;;;2.07;87.59;100357.26;1824771;78;21490;-73
2021/01/06 11:13:31;;;;;;;103.90;41.65;;;;;;;2.11;87.61;100362.71;1822249;77;21032;-73
2021/01/06 11:16:13;;;;;;;104.65;44.05;;;;;;;2.14;87.59;100361.29;1755881;81;22080;-71
2021/01/06 11:18:45;;;;;;;105.67;42.88;;;;;;;2.14;87.58;100366.50;1728292;81;21551;-73
2021/01/06 11:21:22;;;;;;;104.60;43.90;;;;;;;2.17;87.58;100366.36;1752614;81;21141;-71
2021/01/06 11:23:57;;;;;;;93.50;40.03;;;;;;;2.16;87.56;100363.82;1759363;81;21212;-71
2021/01/06 11:26:45;;;;;;;88.60;33.85;;;;;;;2.19;87.56;100360.61;1746328;81;21099;-71
2021/01/06 11:29:18;;;;;;;96.47;34.10;;;;;;;2.21;87.55;100353.56;1738692;82;22063;-71
2021/01/06 11:32:03;;;;;;;79.50;33.42;;;;;;;2.21;87.53;100363.98;1738495;81;21083;-72
2021/01/06 11:34:36;;;;;;;86.42;36.28;;;;;;;2.19;87.53;100369.73;1711926;82;21128;-71
2021/01/06 11:37:27;;;;;;;74.80;33.65;;;;;;;2.21;87.50;100371.80;1746237;81;21460;-71
2021/01/06 11:39:55;;;;;;;79.58;34.03;;;;;;;2.21;87.48;100380.92;1755903;81;21073;-72
2021/01/06 11:42:34;;;;;;;104.17;47.73;;;;;;;2.20;87.42;100387.52;1756204;79;21904;-71
2021/01/06 11:45:10;;;;;;;128.82;67.70;;;;;;;2.16;87.36;100388.58;1714332;81;21169;-71
2021/01/06 11:48:06;;;;;;;98.67;43.25;;;;;;;2.15;87.34;100386.89;1755703;81;21060;-69
2021/01/06 11:50:45;;;;;;;98.12;38.40;;;;;;;2.15;87.30;100387.73;1754682;81;21658;-69
2021/01/06 11:53:30;;;;;;;97.75;37.80;;;;;;;2.17;87.30;100383.75;1754790;80;21164;-69
2021/01/06 11:56:17;;;;;;;95.12;38.50;;;;;;;2.16;87.24;100377.70;1754745;81;22063;-68
2021/01/06 11:59:06;;;;;;;92.22;37.48;;;;;;;2.17;87.23;100385.89;1755070;81;21610;-69
2021/01/06 12:02:00;;;;;;;82.85;33.60;;;;;;;2.19;87.25;100379.31;1754798;81;21213;-69
2021/01/06 12:05:07;;;;;;;83.05;34.45;;;;;;;2.19;87.26;100371.03;1754895;81;21187;-69